sensor_id;sensor_type;location;lat;lon;timestamp;P1;durP1;ratioP1;P2;durP2;ratioP2
45077;SDS011;60508;42.622;25.416;2022-08-25T00:01:12;19.50;;;4.93;;
45077;SDS011;60508;42.622;25.416;2022-08-25T00:03:43;17.73;;;5.43;;
45077;SDS011;60508;42.622;25.416;2022-08-25T00:06:10;22.25;;;4.68;;
45077;SDS011;60508;42.622;25.416;2022-08-25T00:08:37;16.20;;;4.30;;
45077;SDS011;60508;42.622;25.416;2022-08-25T00:11:04;29.63;;;6.10;;
45077;SDS011;60508;42.622;25.416;2022-08-25T00:13:32;24.90;;;5.10;;
45077;SDS011;60508;42.622;25.416;2022-08-25T00:15:58;19.23;;;4.20;;
45077;SDS011;60508;42.622;25.416;2022-08-25T00:18:25;25.35;;;5.90;;
45077;SDS011;60508;42.622;25.416;2022-08-25T00:20:51;21.83;;;6.00;;
45077;SDS011;60508;42.622;25.416;2022-08-25T00:23:18;22.50;;;4.70;;
45077;SDS011;60508;42.622;25.416;2022-08-25T00:25:44;23.27;;;5.75;;
45077;SDS011;60508;42.622;25.416;2022-08-25T00:28:10;21.65;;;4.38;;
45077;SDS011;60508;42.622;25.416;2022-08-25T00:30:37;19.33;;;5.95;;
45077;SDS011;60508;42.622;25.416;2022-08-25T00:33:03;17.92;;;4.80;;
45077;SDS011;60508;42.622;25.416;2022-08-25T00:35:30;22.38;;;4.68;;
45077;SDS011;60508;42.622;25.416;2022-08-25T00:37:56;29.02;;;5.55;;
45077;SDS011;60508;42.622;25.416;2022-08-25T00:40:23;22.60;;;4.47;;
45077;SDS011;60508;42.622;25.416;2022-08-25T00:42:50;26.77;;;4.75;;
45077;SDS011;60508;42.622;25.416;2022-08-25T00:45:17;25.25;;;6.07;;
45077;SDS011;60508;42.622;25.416;2022-08-25T00:47:43;22.45;;;5.53;;
45077;SDS011;60508;42.622;25.416;2022-08-25T00:50:09;30.88;;;5.55;;
45077;SDS011;60508;42.622;25.416;2022-08-25T00:52:43;26.52;;;4.15;;
45077;SDS011;60508;42.622;25.416;2022-08-25T00:55:15;23.08;;;6.10;;
45077;SDS011;60508;42.622;25.416;2022-08-25T00:57:49;23.17;;;5.97;;
45077;SDS011;60508;42.622;25.416;2022-08-25T01:00:26;18.58;;;5.72;;
45077;SDS011;60508;42.622;25.416;2022-08-25T01:02:58;20.00;;;5.50;;
45077;SDS011;60508;42.622;25.416;2022-08-25T01:05:25;22.42;;;5.43;;
45077;SDS011;60508;42.622;25.416;2022-08-25T01:07:53;35.97;;;7.30;;
45077;SDS011;60508;42.622;25.416;2022-08-25T01:10:20;27.10;;;5.30;;
45077;SDS011;60508;42.622;25.416;2022-08-25T01:12:47;24.48;;;4.97;;
45077;SDS011;60508;42.622;25.416;2022-08-25T01:15:14;17.52;;;5.22;;
45077;SDS011;60508;42.622;25.416;2022-08-25T01:17:46;23.95;;;5.30;;
45077;SDS011;60508;42.622;25.416;2022-08-25T01:20:14;25.23;;;5.35;;
45077;SDS011;60508;42.622;25.416;2022-08-25T01:22:44;26.75;;;7.07;;
45077;SDS011;60508;42.622;25.416;2022-08-25T01:25:22;24.13;;;5.35;;
45077;SDS011;60508;42.622;25.416;2022-08-25T01:27:51;23.85;;;7.10;;
45077;SDS011;60508;42.622;25.416;2022-08-25T01:30:18;28.88;;;6.47;;
45077;SDS011;60508;42.622;25.416;2022-08-25T01:32:44;24.70;;;5.43;;
45077;SDS011;60508;42.622;25.416;2022-08-25T01:35:10;18.38;;;5.75;;
45077;SDS011;60508;42.622;25.416;2022-08-25T01:37:36;26.95;;;5.50;;
45077;SDS011;60508;42.622;25.416;2022-08-25T01:40:03;15.85;;;5.47;;
45077;SDS011;60508;42.622;25.416;2022-08-25T01:45:22;30.08;;;5.07;;
45077;SDS011;60508;42.622;25.416;2022-08-25T01:47:49;47.13;;;6.85;;
45077;SDS011;60508;42.622;25.416;2022-08-25T01:50:15;29.70;;;5.40;;
45077;SDS011;60508;42.622;25.416;2022-08-25T01:52:53;28.92;;;5.43;;
45077;SDS011;60508;42.622;25.416;2022-08-25T01:55:27;25.17;;;6.65;;
45077;SDS011;60508;42.622;25.416;2022-08-25T01:57:54;32.17;;;5.85;;
45077;SDS011;60508;42.622;25.416;2022-08-25T02:00:20;32.70;;;5.95;;
45077;SDS011;60508;42.622;25.416;2022-08-25T02:02:49;24.15;;;5.82;;
45077;SDS011;60508;42.622;25.416;2022-08-25T02:05:15;28.30;;;6.10;;
45077;SDS011;60508;42.622;25.416;2022-08-25T02:07:42;26.08;;;6.38;;
45077;SDS011;60508;42.622;25.416;2022-08-25T02:10:09;23.98;;;5.20;;
45077;SDS011;60508;42.622;25.416;2022-08-25T02:12:38;26.67;;;5.63;;
45077;SDS011;60508;42.622;25.416;2022-08-25T02:15:05;26.02;;;5.13;;
45077;SDS011;60508;42.622;25.416;2022-08-25T02:17:33;31.17;;;6.90;;
45077;SDS011;60508;42.622;25.416;2022-08-25T02:20:01;29.05;;;5.50;;
45077;SDS011;60508;42.622;25.416;2022-08-25T02:22:29;39.28;;;5.25;;
45077;SDS011;60508;42.622;25.416;2022-08-25T02:24:55;24.45;;;5.68;;
45077;SDS011;60508;42.622;25.416;2022-08-25T02:27:21;14.57;;;5.00;;
45077;SDS011;60508;42.622;25.416;2022-08-25T02:29:48;31.33;;;5.68;;
45077;SDS011;60508;42.622;25.416;2022-08-25T02:32:14;25.15;;;5.43;;
45077;SDS011;60508;42.622;25.416;2022-08-25T02:34:40;34.78;;;5.75;;
45077;SDS011;60508;42.622;25.416;2022-08-25T02:37:06;30.40;;;5.55;;
45077;SDS011;60508;42.622;25.416;2022-08-25T02:39:33;24.73;;;5.05;;
45077;SDS011;60508;42.622;25.416;2022-08-25T02:41:59;40.15;;;5.82;;
45077;SDS011;60508;42.622;25.416;2022-08-25T02:44:25;42.95;;;7.35;;
45077;SDS011;60508;42.622;25.416;2022-08-25T02:46:51;43.92;;;5.85;;
45077;SDS011;60508;42.622;25.416;2022-08-25T02:49:17;32.35;;;6.40;;
45077;SDS011;60508;42.622;25.416;2022-08-25T02:51:43;38.90;;;5.53;;
45077;SDS011;60508;42.622;25.416;2022-08-25T02:54:09;48.92;;;6.63;;
45077;SDS011;60508;42.622;25.416;2022-08-25T02:56:35;31.75;;;6.22;;
45077;SDS011;60508;42.622;25.416;2022-08-25T02:59:01;36.80;;;6.35;;
45077;SDS011;60508;42.622;25.416;2022-08-25T03:01:28;35.47;;;5.45;;
45077;SDS011;60508;42.622;25.416;2022-08-25T03:03:56;32.03;;;5.57;;
45077;SDS011;60508;42.622;25.416;2022-08-25T03:06:22;26.77;;;6.50;;
45077;SDS011;60508;42.622;25.416;2022-08-25T03:08:50;30.45;;;4.63;;
45077;SDS011;60508;42.622;25.416;2022-08-25T03:11:17;37.10;;;5.70;;
45077;SDS011;60508;42.622;25.416;2022-08-25T03:13:43;39.70;;;5.18;;
45077;SDS011;60508;42.622;25.416;2022-08-25T03:16:10;26.67;;;5.82;;
45077;SDS011;60508;42.622;25.416;2022-08-25T03:18:36;33.63;;;5.45;;
45077;SDS011;60508;42.622;25.416;2022-08-25T03:21:03;37.83;;;6.07;;
45077;SDS011;60508;42.622;25.416;2022-08-25T03:23:29;27.90;;;4.68;;
45077;SDS011;60508;42.622;25.416;2022-08-25T03:25:56;38.00;;;5.25;;
45077;SDS011;60508;42.622;25.416;2022-08-25T03:28:41;25.60;;;4.30;;
45077;SDS011;60508;42.622;25.416;2022-08-25T03:31:08;40.33;;;6.28;;
45077;SDS011;60508;42.622;25.416;2022-08-25T03:33:34;20.75;;;5.38;;
45077;SDS011;60508;42.622;25.416;2022-08-25T03:36:00;32.42;;;4.53;;
45077;SDS011;60508;42.622;25.416;2022-08-25T03:38:27;47.28;;;6.55;;
45077;SDS011;60508;42.622;25.416;2022-08-25T03:40:53;45.78;;;6.47;;
45077;SDS011;60508;42.622;25.416;2022-08-25T03:43:20;50.55;;;5.43;;
45077;SDS011;60508;42.622;25.416;2022-08-25T03:45:47;41.03;;;5.63;;
45077;SDS011;60508;42.622;25.416;2022-08-25T03:48:14;39.13;;;5.25;;
45077;SDS011;60508;42.622;25.416;2022-08-25T03:50:44;24.10;;;4.88;;
45077;SDS011;60508;42.622;25.416;2022-08-25T03:53:12;29.83;;;5.72;;
45077;SDS011;60508;42.622;25.416;2022-08-25T03:55:38;16.60;;;4.07;;
45077;SDS011;60508;42.622;25.416;2022-08-25T03:58:05;33.00;;;5.53;;
45077;SDS011;60508;42.622;25.416;2022-08-25T04:00:31;25.65;;;4.97;;
45077;SDS011;60508;42.622;25.416;2022-08-25T04:02:57;40.58;;;6.10;;
45077;SDS011;60508;42.622;25.416;2022-08-25T04:05:23;36.60;;;5.70;;
45077;SDS011;60508;42.622;25.416;2022-08-25T04:07:49;29.58;;;5.68;;
45077;SDS011;60508;42.622;25.416;2022-08-25T04:10:15;27.10;;;5.25;;
45077;SDS011;60508;42.622;25.416;2022-08-25T04:12:41;28.98;;;6.15;;
45077;SDS011;60508;42.622;25.416;2022-08-25T04:15:08;33.25;;;5.05;;
45077;SDS011;60508;42.622;25.416;2022-08-25T04:17:37;23.10;;;5.72;;
45077;SDS011;60508;42.622;25.416;2022-08-25T04:20:05;17.25;;;4.45;;
45077;SDS011;60508;42.622;25.416;2022-08-25T04:22:33;33.72;;;4.57;;
45077;SDS011;60508;42.622;25.416;2022-08-25T04:25:00;38.90;;;5.25;;
45077;SDS011;60508;42.622;25.416;2022-08-25T04:27:26;34.47;;;7.10;;
45077;SDS011;60508;42.622;25.416;2022-08-25T04:29:52;19.50;;;5.07;;
45077;SDS011;60508;42.622;25.416;2022-08-25T04:32:18;35.50;;;6.60;;
45077;SDS011;60508;42.622;25.416;2022-08-25T04:34:44;31.80;;;7.70;;
45077;SDS011;60508;42.622;25.416;2022-08-25T04:37:10;20.00;;;5.97;;
45077;SDS011;60508;42.622;25.416;2022-08-25T04:39:36;33.13;;;6.28;;
45077;SDS011;60508;42.622;25.416;2022-08-25T04:42:02;37.42;;;7.60;;
45077;SDS011;60508;42.622;25.416;2022-08-25T04:44:28;32.45;;;7.10;;
45077;SDS011;60508;42.622;25.416;2022-08-25T04:46:55;20.88;;;6.95;;
45077;SDS011;60508;42.622;25.416;2022-08-25T04:49:21;28.13;;;6.50;;
45077;SDS011;60508;42.622;25.416;2022-08-25T04:51:47;50.42;;;6.65;;
45077;SDS011;60508;42.622;25.416;2022-08-25T04:54:14;35.75;;;5.88;;
45077;SDS011;60508;42.622;25.416;2022-08-25T04:56:41;29.55;;;6.00;;
45077;SDS011;60508;42.622;25.416;2022-08-25T04:59:12;28.30;;;6.28;;
45077;SDS011;60508;42.622;25.416;2022-08-25T05:01:40;35.78;;;6.13;;
45077;SDS011;60508;42.622;25.416;2022-08-25T05:04:08;45.45;;;7.30;;
45077;SDS011;60508;42.622;25.416;2022-08-25T05:06:37;46.35;;;5.97;;
45077;SDS011;60508;42.622;25.416;2022-08-25T05:09:03;28.98;;;6.22;;
45077;SDS011;60508;42.622;25.416;2022-08-25T05:11:29;33.20;;;6.20;;
45077;SDS011;60508;42.622;25.416;2022-08-25T05:13:56;25.02;;;6.80;;
45077;SDS011;60508;42.622;25.416;2022-08-25T05:16:23;26.83;;;6.22;;
45077;SDS011;60508;42.622;25.416;2022-08-25T05:18:50;26.55;;;6.10;;
45077;SDS011;60508;42.622;25.416;2022-08-25T05:21:18;23.83;;;5.63;;
45077;SDS011;60508;42.622;25.416;2022-08-25T05:23:46;32.47;;;8.13;;
45077;SDS011;60508;42.622;25.416;2022-08-25T05:26:14;29.00;;;6.60;;
45077;SDS011;60508;42.622;25.416;2022-08-25T05:28:44;26.33;;;7.05;;
45077;SDS011;60508;42.622;25.416;2022-08-25T05:31:12;29.95;;;5.30;;
45077;SDS011;60508;42.622;25.416;2022-08-25T05:33:39;35.03;;;6.82;;
45077;SDS011;60508;42.622;25.416;2022-08-25T05:36:07;42.58;;;7.03;;
45077;SDS011;60508;42.622;25.416;2022-08-25T05:38:35;29.17;;;6.85;;
45077;SDS011;60508;42.622;25.416;2022-08-25T05:41:03;32.22;;;6.10;;
45077;SDS011;60508;42.622;25.416;2022-08-25T05:45:58;30.98;;;5.82;;
45077;SDS011;60508;42.622;25.416;2022-08-25T05:48:25;31.17;;;5.38;;
45077;SDS011;60508;42.622;25.416;2022-08-25T05:50:56;39.17;;;5.60;;
45077;SDS011;60508;42.622;25.416;2022-08-25T05:53:25;35.38;;;6.07;;
45077;SDS011;60508;42.622;25.416;2022-08-25T05:55:53;41.90;;;6.40;;
45077;SDS011;60508;42.622;25.416;2022-08-25T05:58:20;29.42;;;6.72;;
45077;SDS011;60508;42.622;25.416;2022-08-25T06:00:47;33.10;;;6.97;;
45077;SDS011;60508;42.622;25.416;2022-08-25T06:03:14;27.75;;;6.28;;
45077;SDS011;60508;42.622;25.416;2022-08-25T06:05:41;21.75;;;5.85;;
45077;SDS011;60508;42.622;25.416;2022-08-25T06:08:07;25.58;;;5.55;;
45077;SDS011;60508;42.622;25.416;2022-08-25T06:10:33;37.63;;;7.45;;
45077;SDS011;60508;42.622;25.416;2022-08-25T06:13:00;27.15;;;5.45;;
45077;SDS011;60508;42.622;25.416;2022-08-25T06:15:26;28.25;;;6.50;;
45077;SDS011;60508;42.622;25.416;2022-08-25T06:17:52;33.00;;;6.40;;
45077;SDS011;60508;42.622;25.416;2022-08-25T06:20:19;27.38;;;5.57;;
45077;SDS011;60508;42.622;25.416;2022-08-25T06:22:47;34.47;;;8.50;;
45077;SDS011;60508;42.622;25.416;2022-08-25T06:25:14;34.53;;;5.75;;
45077;SDS011;60508;42.622;25.416;2022-08-25T06:27:42;41.30;;;7.25;;
45077;SDS011;60508;42.622;25.416;2022-08-25T06:30:09;33.53;;;6.07;;
45077;SDS011;60508;42.622;25.416;2022-08-25T06:32:37;57.13;;;9.05;;
45077;SDS011;60508;42.622;25.416;2022-08-25T06:35:05;39.70;;;6.25;;
45077;SDS011;60508;42.622;25.416;2022-08-25T06:37:33;33.72;;;6.60;;
45077;SDS011;60508;42.622;25.416;2022-08-25T06:40:00;42.47;;;8.05;;
45077;SDS011;60508;42.622;25.416;2022-08-25T06:42:26;33.58;;;5.80;;
45077;SDS011;60508;42.622;25.416;2022-08-25T06:44:53;35.13;;;8.55;;
45077;SDS011;60508;42.622;25.416;2022-08-25T06:47:20;36.92;;;7.80;;
45077;SDS011;60508;42.622;25.416;2022-08-25T06:49:46;51.67;;;6.90;;
45077;SDS011;60508;42.622;25.416;2022-08-25T06:52:12;34.17;;;5.35;;
45077;SDS011;60508;42.622;25.416;2022-08-25T06:54:39;46.55;;;7.07;;
45077;SDS011;60508;42.622;25.416;2022-08-25T06:57:05;55.05;;;6.45;;
45077;SDS011;60508;42.622;25.416;2022-08-25T06:59:35;49.33;;;7.35;;
45077;SDS011;60508;42.622;25.416;2022-08-25T07:02:02;57.45;;;5.43;;
45077;SDS011;60508;42.622;25.416;2022-08-25T07:04:30;37.03;;;5.22;;
45077;SDS011;60508;42.622;25.416;2022-08-25T07:06:57;47.17;;;6.25;;
45077;SDS011;60508;42.622;25.416;2022-08-25T07:09:24;48.50;;;5.65;;
45077;SDS011;60508;42.622;25.416;2022-08-25T07:11:50;41.35;;;5.43;;
45077;SDS011;60508;42.622;25.416;2022-08-25T07:14:17;34.53;;;6.30;;
45077;SDS011;60508;42.622;25.416;2022-08-25T07:16:44;41.95;;;6.85;;
45077;SDS011;60508;42.622;25.416;2022-08-25T07:19:11;57.97;;;5.57;;
45077;SDS011;60508;42.622;25.416;2022-08-25T07:21:38;55.60;;;7.38;;
45077;SDS011;60508;42.622;25.416;2022-08-25T07:24:07;34.08;;;4.40;;
45077;SDS011;60508;42.622;25.416;2022-08-25T07:26:35;43.35;;;6.25;;
45077;SDS011;60508;42.622;25.416;2022-08-25T07:29:04;38.75;;;6.50;;
45077;SDS011;60508;42.622;25.416;2022-08-25T07:31:34;42.70;;;5.93;;
45077;SDS011;60508;42.622;25.416;2022-08-25T07:33:59;34.50;;;6.90;;
45077;SDS011;60508;42.622;25.416;2022-08-25T07:36:44;26.85;;;5.85;;
45077;SDS011;60508;42.622;25.416;2022-08-25T07:39:11;25.67;;;5.18;;
45077;SDS011;60508;42.622;25.416;2022-08-25T07:41:39;50.00;;;5.47;;
45077;SDS011;60508;42.622;25.416;2022-08-25T07:44:06;33.58;;;5.07;;
45077;SDS011;60508;42.622;25.416;2022-08-25T07:46:34;35.77;;;5.73;;
45077;SDS011;60508;42.622;25.416;2022-08-25T07:49:00;44.05;;;5.85;;
45077;SDS011;60508;42.622;25.416;2022-08-25T07:51:26;46.70;;;4.72;;
45077;SDS011;60508;42.622;25.416;2022-08-25T07:53:53;29.83;;;4.45;;
45077;SDS011;60508;42.622;25.416;2022-08-25T07:56:19;31.05;;;5.00;;
45077;SDS011;60508;42.622;25.416;2022-08-25T07:58:45;33.80;;;4.00;;
45077;SDS011;60508;42.622;25.416;2022-08-25T08:01:12;32.50;;;4.80;;
45077;SDS011;60508;42.622;25.416;2022-08-25T08:03:43;46.88;;;4.90;;
45077;SDS011;60508;42.622;25.416;2022-08-25T08:06:11;27.10;;;5.35;;
45077;SDS011;60508;42.622;25.416;2022-08-25T08:08:39;35.17;;;5.77;;
45077;SDS011;60508;42.622;25.416;2022-08-25T08:11:52;31.20;;;4.97;;
45077;SDS011;60508;42.622;25.416;2022-08-25T08:14:01;50.60;;;5.47;;
45077;SDS011;60508;42.622;25.416;2022-08-25T08:16:28;40.75;;;6.78;;
45077;SDS011;60508;42.622;25.416;2022-08-25T08:18:56;49.20;;;4.43;;
45077;SDS011;60508;42.622;25.416;2022-08-25T08:21:24;57.58;;;5.95;;
45077;SDS011;60508;42.622;25.416;2022-08-25T08:26:19;42.20;;;5.65;;
45077;SDS011;60508;42.622;25.416;2022-08-25T08:28:45;34.40;;;4.32;;
45077;SDS011;60508;42.622;25.416;2022-08-25T08:31:11;35.28;;;5.57;;
45077;SDS011;60508;42.622;25.416;2022-08-25T08:33:37;37.50;;;5.95;;
45077;SDS011;60508;42.622;25.416;2022-08-25T08:36:04;22.05;;;5.18;;
45077;SDS011;60508;42.622;25.416;2022-08-25T08:38:33;34.25;;;4.20;;
45077;SDS011;60508;42.622;25.416;2022-08-25T08:46:41;26.92;;;6.38;;
45077;SDS011;60508;42.622;25.416;2022-08-25T08:49:24;37.97;;;6.88;;
45077;SDS011;60508;42.622;25.416;2022-08-25T08:52:00;44.08;;;7.78;;
45077;SDS011;60508;42.622;25.416;2022-08-25T08:54:28;33.95;;;5.65;;
45077;SDS011;60508;42.622;25.416;2022-08-25T08:57:04;36.08;;;6.55;;
45077;SDS011;60508;42.622;25.416;2022-08-25T09:00:11;46.55;;;6.22;;
45077;SDS011;60508;42.622;25.416;2022-08-25T09:02:32;33.70;;;5.65;;
45077;SDS011;60508;42.622;25.416;2022-08-25T09:05:03;33.42;;;5.63;;
45077;SDS011;60508;42.622;25.416;2022-08-25T09:07:36;24.98;;;4.85;;
45077;SDS011;60508;42.622;25.416;2022-08-25T09:10:13;29.20;;;6.28;;
45077;SDS011;60508;42.622;25.416;2022-08-25T09:12:48;35.00;;;6.07;;
45077;SDS011;60508;42.622;25.416;2022-08-25T09:21:23;34.10;;;4.85;;
45077;SDS011;60508;42.622;25.416;2022-08-25T09:32:29;49.30;;;8.18;;
45077;SDS011;60508;42.622;25.416;2022-08-25T09:34:58;35.47;;;6.10;;
45077;SDS011;60508;42.622;25.416;2022-08-25T09:37:26;45.63;;;5.93;;
45077;SDS011;60508;42.622;25.416;2022-08-25T09:39:52;34.78;;;5.07;;
45077;SDS011;60508;42.622;25.416;2022-08-25T09:42:19;44.90;;;7.50;;
45077;SDS011;60508;42.622;25.416;2022-08-25T09:44:45;40.00;;;5.82;;
45077;SDS011;60508;42.622;25.416;2022-08-25T09:49:43;39.88;;;5.00;;
45077;SDS011;60508;42.622;25.416;2022-08-25T09:52:20;25.48;;;5.32;;
45077;SDS011;60508;42.622;25.416;2022-08-25T09:54:50;24.95;;;4.90;;
45077;SDS011;60508;42.622;25.416;2022-08-25T09:57:28;34.47;;;4.85;;
45077;SDS011;60508;42.622;25.416;2022-08-25T09:59:54;28.00;;;4.95;;
45077;SDS011;60508;42.622;25.416;2022-08-25T10:02:27;23.35;;;4.22;;
45077;SDS011;60508;42.622;25.416;2022-08-25T10:04:54;30.58;;;4.22;;
45077;SDS011;60508;42.622;25.416;2022-08-25T10:07:25;44.95;;;4.68;;
45077;SDS011;60508;42.622;25.416;2022-08-25T10:10:00;40.47;;;5.13;;
45077;SDS011;60508;42.622;25.416;2022-08-25T10:12:31;30.30;;;4.72;;
45077;SDS011;60508;42.622;25.416;2022-08-25T10:15:17;23.48;;;4.57;;
45077;SDS011;60508;42.622;25.416;2022-08-25T10:17:46;27.60;;;4.57;;
45077;SDS011;60508;42.622;25.416;2022-08-25T10:22:47;27.05;;;4.50;;
45077;SDS011;60508;42.622;25.416;2022-08-25T10:25:14;45.28;;;5.35;;
45077;SDS011;60508;42.622;25.416;2022-08-25T10:33:10;29.02;;;5.32;;
45077;SDS011;60508;42.622;25.416;2022-08-25T10:47:13;26.15;;;5.50;;
45077;SDS011;60508;42.622;25.416;2022-08-25T11:06:23;32.90;;;5.95;;
45077;SDS011;60508;42.622;25.416;2022-08-25T11:08:59;37.50;;;7.05;;
45077;SDS011;60508;42.622;25.416;2022-08-25T11:14:03;35.75;;;5.80;;
45077;SDS011;60508;42.622;25.416;2022-08-25T11:19:25;28.60;;;4.53;;
45077;SDS011;60508;42.622;25.416;2022-08-25T11:22:11;37.17;;;6.00;;
45077;SDS011;60508;42.622;25.416;2022-08-25T11:24:51;27.88;;;6.43;;
45077;SDS011;60508;42.622;25.416;2022-08-25T11:27:27;38.53;;;4.93;;
45077;SDS011;60508;42.622;25.416;2022-08-25T11:30:16;21.30;;;4.25;;
45077;SDS011;60508;42.622;25.416;2022-08-25T11:32:44;34.23;;;7.37;;
45077;SDS011;60508;42.622;25.416;2022-08-25T11:35:13;25.50;;;5.75;;
45077;SDS011;60508;42.622;25.416;2022-08-25T11:38:35;20.67;;;6.05;;
45077;SDS011;60508;42.622;25.416;2022-08-25T11:41:13;31.42;;;5.22;;
45077;SDS011;60508;42.622;25.416;2022-08-25T11:55:18;41.30;;;5.55;;
45077;SDS011;60508;42.622;25.416;2022-08-25T11:58:13;26.15;;;4.82;;
45077;SDS011;60508;42.622;25.416;2022-08-25T12:00:59;29.17;;;5.05;;
45077;SDS011;60508;42.622;25.416;2022-08-25T12:08:52;24.40;;;4.55;;
45077;SDS011;60508;42.622;25.416;2022-08-25T12:16:42;26.83;;;4.32;;
45077;SDS011;60508;42.622;25.416;2022-08-25T12:30:20;21.02;;;4.13;;
45077;SDS011;60508;42.622;25.416;2022-08-25T12:38:14;25.42;;;4.03;;
45077;SDS011;60508;42.622;25.416;2022-08-25T12:43:21;24.65;;;4.50;;
45077;SDS011;60508;42.622;25.416;2022-08-25T12:45:53;22.27;;;4.45;;
45077;SDS011;60508;42.622;25.416;2022-08-25T12:48:58;23.75;;;4.13;;
45077;SDS011;60508;42.622;25.416;2022-08-25T13:00:14;21.10;;;3.90;;
45077;SDS011;60508;42.622;25.416;2022-08-25T13:03:04;20.20;;;3.95;;
45077;SDS011;60508;42.622;25.416;2022-08-25T13:06:24;21.00;;;3.95;;
45077;SDS011;60508;42.622;25.416;2022-08-25T13:11:23;20.80;;;3.53;;
45077;SDS011;60508;42.622;25.416;2022-08-25T13:13:55;20.67;;;3.67;;
45077;SDS011;60508;42.622;25.416;2022-08-25T13:16:25;25.55;;;3.35;;
45077;SDS011;60508;42.622;25.416;2022-08-25T13:18:54;32.60;;;3.60;;
45077;SDS011;60508;42.622;25.416;2022-08-25T13:21:27;33.85;;;4.32;;
45077;SDS011;60508;42.622;25.416;2022-08-25T13:23:57;31.63;;;3.80;;
45077;SDS011;60508;42.622;25.416;2022-08-25T13:26:26;19.08;;;3.25;;
45077;SDS011;60508;42.622;25.416;2022-08-25T13:28:59;31.02;;;3.67;;
45077;SDS011;60508;42.622;25.416;2022-08-25T13:31:32;17.50;;;4.13;;
45077;SDS011;60508;42.622;25.416;2022-08-25T13:36:34;33.63;;;4.57;;
45077;SDS011;60508;42.622;25.416;2022-08-25T13:39:26;23.33;;;3.85;;
45077;SDS011;60508;42.622;25.416;2022-08-25T13:41:54;25.07;;;4.03;;
45077;SDS011;60508;42.622;25.416;2022-08-25T13:44:23;24.38;;;3.22;;
45077;SDS011;60508;42.622;25.416;2022-08-25T13:47:06;18.67;;;3.63;;
45077;SDS011;60508;42.622;25.416;2022-08-25T13:50:06;25.58;;;3.60;;
45077;SDS011;60508;42.622;25.416;2022-08-25T13:52:55;25.23;;;4.20;;
45077;SDS011;60508;42.622;25.416;2022-08-25T13:55:32;28.90;;;3.90;;
45077;SDS011;60508;42.622;25.416;2022-08-25T13:58:04;30.08;;;4.57;;
45077;SDS011;60508;42.622;25.416;2022-08-25T14:00:40;30.88;;;3.25;;
45077;SDS011;60508;42.622;25.416;2022-08-25T14:06:03;17.00;;;3.38;;
45077;SDS011;60508;42.622;25.416;2022-08-25T14:08:42;27.02;;;4.30;;
45077;SDS011;60508;42.622;25.416;2022-08-25T14:11:23;23.77;;;3.97;;
45077;SDS011;60508;42.622;25.416;2022-08-25T14:16:47;21.30;;;3.05;;
45077;SDS011;60508;42.622;25.416;2022-08-25T14:19:20;23.23;;;3.40;;
45077;SDS011;60508;42.622;25.416;2022-08-25T14:21:48;23.00;;;3.45;;
45077;SDS011;60508;42.622;25.416;2022-08-25T14:24:15;37.05;;;3.15;;
45077;SDS011;60508;42.622;25.416;2022-08-25T14:26:43;24.67;;;3.25;;
45077;SDS011;60508;42.622;25.416;2022-08-25T14:29:10;23.80;;;4.70;;
45077;SDS011;60508;42.622;25.416;2022-08-25T14:31:38;13.48;;;3.05;;
45077;SDS011;60508;42.622;25.416;2022-08-25T14:34:18;27.33;;;3.67;;
45077;SDS011;60508;42.622;25.416;2022-08-25T14:36:47;19.48;;;2.58;;
45077;SDS011;60508;42.622;25.416;2022-08-25T14:39:14;25.67;;;3.78;;
45077;SDS011;60508;42.622;25.416;2022-08-25T14:41:41;17.65;;;3.33;;
45077;SDS011;60508;42.622;25.416;2022-08-25T14:44:11;19.85;;;2.90;;
45077;SDS011;60508;42.622;25.416;2022-08-25T14:46:45;15.73;;;5.38;;
45077;SDS011;60508;42.622;25.416;2022-08-25T14:49:22;20.40;;;3.30;;
45077;SDS011;60508;42.622;25.416;2022-08-25T14:51:54;25.23;;;3.50;;
45077;SDS011;60508;42.622;25.416;2022-08-25T14:54:24;15.75;;;2.63;;
45077;SDS011;60508;42.622;25.416;2022-08-25T14:56:51;24.45;;;3.67;;
45077;SDS011;60508;42.622;25.416;2022-08-25T14:59:18;18.65;;;2.25;;
45077;SDS011;60508;42.622;25.416;2022-08-25T15:01:44;26.52;;;3.92;;
45077;SDS011;60508;42.622;25.416;2022-08-25T15:04:14;25.48;;;3.15;;
45077;SDS011;60508;42.622;25.416;2022-08-25T15:06:43;22.67;;;3.00;;
45077;SDS011;60508;42.622;25.416;2022-08-25T15:09:11;25.52;;;3.35;;
45077;SDS011;60508;42.622;25.416;2022-08-25T15:11:41;19.38;;;3.20;;
45077;SDS011;60508;42.622;25.416;2022-08-25T15:14:13;28.90;;;3.70;;
45077;SDS011;60508;42.622;25.416;2022-08-25T15:16:45;46.70;;;3.93;;
45077;SDS011;60508;42.622;25.416;2022-08-25T15:19:14;23.45;;;3.85;;
45077;SDS011;60508;42.622;25.416;2022-08-25T15:21:42;18.17;;;3.45;;
45077;SDS011;60508;42.622;25.416;2022-08-25T15:24:10;37.35;;;3.28;;
45077;SDS011;60508;42.622;25.416;2022-08-25T15:26:47;26.00;;;3.97;;
45077;SDS011;60508;42.622;25.416;2022-08-25T15:29:16;30.20;;;3.83;;
45077;SDS011;60508;42.622;25.416;2022-08-25T15:31:43;16.80;;;3.50;;
45077;SDS011;60508;42.622;25.416;2022-08-25T15:34:09;25.50;;;4.80;;
45077;SDS011;60508;42.622;25.416;2022-08-25T15:36:35;18.02;;;4.30;;
45077;SDS011;60508;42.622;25.416;2022-08-25T15:39:03;18.90;;;2.90;;
45077;SDS011;60508;42.622;25.416;2022-08-25T15:41:30;19.80;;;4.88;;
45077;SDS011;60508;42.622;25.416;2022-08-25T15:43:56;16.10;;;4.22;;
45077;SDS011;60508;42.622;25.416;2022-08-25T15:46:24;23.15;;;4.00;;
45077;SDS011;60508;42.622;25.416;2022-08-25T15:48:55;20.60;;;4.68;;
45077;SDS011;60508;42.622;25.416;2022-08-25T15:51:22;28.63;;;5.55;;
45077;SDS011;60508;42.622;25.416;2022-08-25T15:53:48;25.90;;;4.70;;
45077;SDS011;60508;42.622;25.416;2022-08-25T15:56:14;30.20;;;3.80;;
45077;SDS011;60508;42.622;25.416;2022-08-25T15:58:44;18.83;;;4.10;;
45077;SDS011;60508;42.622;25.416;2022-08-25T16:01:12;29.55;;;4.45;;
45077;SDS011;60508;42.622;25.416;2022-08-25T16:03:40;36.97;;;4.65;;
45077;SDS011;60508;42.622;25.416;2022-08-25T16:06:06;34.88;;;4.60;;
45077;SDS011;60508;42.622;25.416;2022-08-25T16:08:33;30.73;;;3.92;;
45077;SDS011;60508;42.622;25.416;2022-08-25T16:10:59;19.15;;;4.18;;
45077;SDS011;60508;42.622;25.416;2022-08-25T16:13:25;34.50;;;4.20;;
45077;SDS011;60508;42.622;25.416;2022-08-25T16:15:53;22.40;;;3.67;;
45077;SDS011;60508;42.622;25.416;2022-08-25T16:18:20;12.38;;;3.35;;
45077;SDS011;60508;42.622;25.416;2022-08-25T16:20:47;25.52;;;3.00;;
45077;SDS011;60508;42.622;25.416;2022-08-25T16:23:14;26.55;;;4.97;;
45077;SDS011;60508;42.622;25.416;2022-08-25T16:25:42;36.47;;;4.13;;
45077;SDS011;60508;42.622;25.416;2022-08-25T16:28:10;32.20;;;3.90;;
45077;SDS011;60508;42.622;25.416;2022-08-25T16:30:38;33.00;;;4.00;;
45077;SDS011;60508;42.622;25.416;2022-08-25T16:33:07;24.98;;;5.57;;
45077;SDS011;60508;42.622;25.416;2022-08-25T16:35:33;23.20;;;3.85;;
45077;SDS011;60508;42.622;25.416;2022-08-25T16:38:00;27.42;;;3.90;;
45077;SDS011;60508;42.622;25.416;2022-08-25T16:40:27;24.95;;;3.80;;
45077;SDS011;60508;42.622;25.416;2022-08-25T16:42:53;25.05;;;3.88;;
45077;SDS011;60508;42.622;25.416;2022-08-25T16:45:20;22.35;;;4.72;;
45077;SDS011;60508;42.622;25.416;2022-08-25T16:47:46;23.45;;;5.20;;